Last 6 Hours

Alpine-Summit 8643' (Ward Mt.)

15 Minute Data | America/Los_Angeles
as of 10/18/19 7:29 AM PDT
Date & Time Temp (°F) RH (%) Dew Pt (°F) Wet Bulb (°F) Wind Dir (°) Wind Spd (mph) Wind Gust (mph) WindChill (°F)
10/18/19 - 0715 33.0 35 8.4 24.9 NNW | 334 0.1 1.2 33.1
10/18/19 - 0700 33.1 34 7.9 24.8 NNW | 347 0.4 2.0 33.2
10/18/19 - 0645 33.2 37 9.5 25.2 N | 2 1.7 4.4 32.3
10/18/19 - 0630 32.8 42 12.4 25.7 NNE | 12 1.9 9.6 31.9
10/18/19 - 0615 33.9 38 11.0 26.0 NNE | 15 4.2 6.6 28.8
10/18/19 - 0600 31.1 52 15.4 25.5 NNE | 33 2.7 6.2 29.5
10/18/19 - 0545 32.1 47 14.1 25.7 WNW | 291 0.1 0.7 32.3
10/18/19 - 0530 32.6 45 13.7 25.9 NW | 307 0.9 3.1 32.8
10/18/19 - 0515 32.9 44 13.4 26.0 NW | 321 3.7 6.6 30.3
10/18/19 - 0500 32.9 43 12.7 25.8 WNW | 298 6.6 9.9 27.1
10/18/19 - 0445 33.2 42 12.8 26.0 N | 351 4.7 10.6 29.4
10/18/19 - 0430 32.3 44 13.0 25.6 NE | 37 4.3 8.0 27.7
10/18/19 - 0415 30.9 52 15.5 25.4 NE | 48 4.4 7.5 26.9
10/18/19 - 0400 30.9 58 17.8 26.0 NE | 56 6.7 9.1 24.4
10/18/19 - 0345 30.9 57 17.6 26.0 ENE | 66 10.1 15.1 22.3
10/18/19 - 0330 30.8 60 18.7 26.2 ENE | 67 10.6 13.7 21.6
10/18/19 - 0315 30.6 68 21.4 27.0 ENE | 71 10.6 16.0 22.1
10/18/19 - 0300 31.1 63 20.2 26.9 ENE | 70 12.0 15.1 21.6
10/18/19 - 0245 30.9 64 20.4 26.8 ENE | 70 12.6 17.1 21.4
10/18/19 - 0230 31.3 63 20.3 27.0 ENE | 75 18.1 23.4 19.5
10/18/19 - 0215 30.4 70 21.9 27.0 E | 79 20.3 24.4 18.1
10/18/19 - 0200 30.7 69 21.9 27.2 ENE | 73 22.7 26.8 16.6
10/18/19 - 0145 29.2 86 25.7 27.7 ENE | 68 17.9 22.8 17.3
10/18/19 - 0130 29.9 80 24.4 27.7 ENE | 67 12.5 16.4 20.3
Max 33.9 86 25.7 27.7 - 22.7 26.8 33.2
Avg 31.7 54 16.3 26.2 - 7.9 11.5 25.8
Min 29.2 34 7.9 24.8 - 0.1 0.7 16.6